sensor_id;sensor_type;location;lat;lon;timestamp;pressure;altitude;pressure_sealevel;temperature;humidity
23339;BME280;11841;49.368;20.962;2023-08-08T00:02:10;95421.94;;;14.58;94.38
23339;BME280;11841;49.368;20.962;2023-08-08T00:04:56;95424.38;;;14.59;94.77
23339;BME280;11841;49.368;20.962;2023-08-08T00:07:42;95429.44;;;14.61;95.12
23339;BME280;11841;49.368;20.962;2023-08-08T00:10:27;95441.97;;;14.60;95.38
23339;BME280;11841;49.368;20.962;2023-08-08T00:13:12;95438.56;;;14.65;95.37
23339;BME280;11841;49.368;20.962;2023-08-08T00:15:58;95440.75;;;14.68;95.18
23339;BME280;11841;49.368;20.962;2023-08-08T00:18:43;95445.53;;;14.66;95.55
23339;BME280;11841;49.368;20.962;2023-08-08T00:21:29;95446.63;;;14.70;95.65
23339;BME280;11841;49.368;20.962;2023-08-08T00:24:14;95450.91;;;14.71;95.72
23339;BME280;11841;49.368;20.962;2023-08-08T00:26:59;95444.25;;;14.73;95.68
23339;BME280;11841;49.368;20.962;2023-08-08T00:29:45;95443.22;;;14.74;95.66
23339;BME280;11841;49.368;20.962;2023-08-08T00:32:30;95443.78;;;14.76;95.40
23339;BME280;11841;49.368;20.962;2023-08-08T00:35:16;95444.56;;;14.77;95.34
23339;BME280;11841;49.368;20.962;2023-08-08T00:38:02;95457.13;;;14.76;95.21
23339;BME280;11841;49.368;20.962;2023-08-08T00:40:47;95449.91;;;14.77;95.39
23339;BME280;11841;49.368;20.962;2023-08-08T00:43:33;95451.47;;;14.73;95.73
23339;BME280;11841;49.368;20.962;2023-08-08T00:46:22;95448.81;;;14.73;95.89
23339;BME280;11841;49.368;20.962;2023-08-08T00:49:09;95452.47;;;14.67;96.24
23339;BME280;11841;49.368;20.962;2023-08-08T00:51:55;95449.84;;;14.50;97.64
23339;BME280;11841;49.368;20.962;2023-08-08T00:54:40;95450.41;;;14.52;98.00
23339;BME280;11841;49.368;20.962;2023-08-08T00:57:26;95452.84;;;14.53;97.83
23339;BME280;11841;49.368;20.962;2023-08-08T01:00:11;95448.53;;;14.52;97.95
23339;BME280;11841;49.368;20.962;2023-08-08T01:02:57;95453.66;;;14.54;98.03
23339;BME280;11841;49.368;20.962;2023-08-08T01:05:47;95462.75;;;14.58;97.79
23339;BME280;11841;49.368;20.962;2023-08-08T01:08:39;95465.47;;;14.63;97.62
23339;BME280;11841;49.368;20.962;2023-08-08T01:11:28;95470.56;;;14.65;97.58
23339;BME280;11841;49.368;20.962;2023-08-08T01:14:16;95468.47;;;14.67;97.41
23339;BME280;11841;49.368;20.962;2023-08-08T01:17:04;95468.53;;;14.72;97.43
23339;BME280;11841;49.368;20.962;2023-08-08T01:19:50;95477.53;;;14.66;98.00
23339;BME280;11841;49.368;20.962;2023-08-08T01:22:45;95478.41;;;14.71;98.13
23339;BME280;11841;49.368;20.962;2023-08-08T01:25:36;95475.81;;;14.76;97.95
23339;BME280;11841;49.368;20.962;2023-08-08T01:28:23;95479.81;;;14.79;97.57
23339;BME280;11841;49.368;20.962;2023-08-08T01:31:08;95478.75;;;14.80;97.61
23339;BME280;11841;49.368;20.962;2023-08-08T01:33:54;95485.47;;;14.82;97.49
23339;BME280;11841;49.368;20.962;2023-08-08T01:39:50;95487.34;;;14.82;98.31
23339;BME280;11841;49.368;20.962;2023-08-08T01:42:36;95496.91;;;14.78;98.75
23339;BME280;11841;49.368;20.962;2023-08-08T01:45:22;95493.09;;;14.74;99.44
23339;BME280;11841;49.368;20.962;2023-08-08T01:48:10;95494.81;;;14.63;100.00
23339;BME280;11841;49.368;20.962;2023-08-08T01:50:56;95501.31;;;14.67;100.00
23339;BME280;11841;49.368;20.962;2023-08-08T01:53:41;95505.56;;;14.68;100.00
23339;BME280;11841;49.368;20.962;2023-08-08T01:56:27;95501.63;;;14.71;100.00
23339;BME280;11841;49.368;20.962;2023-08-08T01:59:12;95503.22;;;14.72;100.00
23339;BME280;11841;49.368;20.962;2023-08-08T02:02:00;95502.00;;;14.79;100.00
23339;BME280;11841;49.368;20.962;2023-08-08T02:04:46;95507.16;;;14.86;99.89
23339;BME280;11841;49.368;20.962;2023-08-08T02:07:31;95502.38;;;14.88;99.72
23339;BME280;11841;49.368;20.962;2023-08-08T02:10:17;95505.03;;;14.88;99.89
23339;BME280;11841;49.368;20.962;2023-08-08T02:13:03;95490.38;;;14.90;100.00
23339;BME280;11841;49.368;20.962;2023-08-08T02:15:48;95501.88;;;14.91;100.00
23339;BME280;11841;49.368;20.962;2023-08-08T02:18:33;95505.09;;;14.93;99.94
23339;BME280;11841;49.368;20.962;2023-08-08T02:21:19;95504.03;;;14.94;99.28
23339;BME280;11841;49.368;20.962;2023-08-08T02:24:05;95521.19;;;14.98;99.11
23339;BME280;11841;49.368;20.962;2023-08-08T02:26:51;95522.53;;;15.00;99.14
23339;BME280;11841;49.368;20.962;2023-08-08T02:29:36;95525.19;;;15.00;99.16
23339;BME280;11841;49.368;20.962;2023-08-08T02:32:22;95525.19;;;15.00;99.22
23339;BME280;11841;49.368;20.962;2023-08-08T02:39:57;95526.59;;;15.03;98.73
23339;BME280;11841;49.368;20.962;2023-08-08T02:42:43;95536.19;;;15.04;98.50
23339;BME280;11841;49.368;20.962;2023-08-08T02:45:28;95543.56;;;14.97;99.35
23339;BME280;11841;49.368;20.962;2023-08-08T02:48:14;95536.31;;;14.92;99.41
23339;BME280;11841;49.368;20.962;2023-08-08T02:50:59;95546.03;;;14.82;100.00
23339;BME280;11841;49.368;20.962;2023-08-08T02:53:45;95553.47;;;14.80;100.00
23339;BME280;11841;49.368;20.962;2023-08-08T02:56:30;95548.66;;;14.77;100.00
23339;BME280;11841;49.368;20.962;2023-08-08T02:59:16;95556.25;;;14.85;100.00
23339;BME280;11841;49.368;20.962;2023-08-08T03:02:01;95548.31;;;14.90;100.00
23339;BME280;11841;49.368;20.962;2023-08-08T03:04:48;95551.25;;;14.93;100.00
23339;BME280;11841;49.368;20.962;2023-08-08T03:07:34;95558.50;;;14.93;100.00
23339;BME280;11841;49.368;20.962;2023-08-08T03:10:19;95565.44;;;14.94;100.00
23339;BME280;11841;49.368;20.962;2023-08-08T03:13:05;95570.53;;;14.95;99.49
23339;BME280;11841;49.368;20.962;2023-08-08T03:15:51;95552.66;;;14.96;99.59
23339;BME280;11841;49.368;20.962;2023-08-08T03:18:36;95570.06;;;14.98;99.31
23339;BME280;11841;49.368;20.962;2023-08-08T03:21:22;95560.72;;;15.01;98.97
23339;BME280;11841;49.368;20.962;2023-08-08T03:24:07;95568.47;;;15.02;99.05
23339;BME280;11841;49.368;20.962;2023-08-08T03:26:52;95572.09;;;14.91;99.57
23339;BME280;11841;49.368;20.962;2023-08-08T03:29:38;95585.69;;;14.90;99.66
23339;BME280;11841;49.368;20.962;2023-08-08T03:32:23;95589.06;;;14.85;100.00
23339;BME280;11841;49.368;20.962;2023-08-08T03:35:08;95588.28;;;14.85;100.00
23339;BME280;11841;49.368;20.962;2023-08-08T03:37:54;95595.22;;;14.86;100.00
23339;BME280;11841;49.368;20.962;2023-08-08T03:40:40;95593.13;;;14.88;100.00
23339;BME280;11841;49.368;20.962;2023-08-08T03:43:25;95598.63;;;14.81;100.00
23339;BME280;11841;49.368;20.962;2023-08-08T03:46:11;95607.28;;;14.72;100.00
23339;BME280;11841;49.368;20.962;2023-08-08T03:48:57;95607.34;;;14.77;100.00
23339;BME280;11841;49.368;20.962;2023-08-08T03:51:42;95606.41;;;14.83;100.00
23339;BME280;11841;49.368;20.962;2023-08-08T03:54:27;95606.72;;;14.86;100.00
23339;BME280;11841;49.368;20.962;2023-08-08T03:57:13;95612.78;;;14.82;99.87
23339;BME280;11841;49.368;20.962;2023-08-08T03:59:58;95619.09;;;14.76;100.00
23339;BME280;11841;49.368;20.962;2023-08-08T04:02:44;95629.19;;;14.74;100.00
23339;BME280;11841;49.368;20.962;2023-08-08T04:05:30;95630.50;;;14.71;100.00
23339;BME280;11841;49.368;20.962;2023-08-08T04:08:15;95633.81;;;14.62;100.00
23339;BME280;11841;49.368;20.962;2023-08-08T04:11:00;95636.50;;;14.62;99.71
23339;BME280;11841;49.368;20.962;2023-08-08T04:13:45;95637.78;;;14.59;98.10
23339;BME280;11841;49.368;20.962;2023-08-08T04:16:31;95643.59;;;14.56;98.72
23339;BME280;11841;49.368;20.962;2023-08-08T04:19:16;95647.66;;;14.59;97.76
23339;BME280;11841;49.368;20.962;2023-08-08T04:22:02;95649.91;;;14.67;97.03
23339;BME280;11841;49.368;20.962;2023-08-08T04:24:47;95655.31;;;14.72;96.46
23339;BME280;11841;49.368;20.962;2023-08-08T04:27:32;95654.59;;;14.76;95.99
23339;BME280;11841;49.368;20.962;2023-08-08T04:30:18;95656.47;;;14.76;95.65
23339;BME280;11841;49.368;20.962;2023-08-08T04:33:03;95657.03;;;14.78;95.57
23339;BME280;11841;49.368;20.962;2023-08-08T04:35:49;95652.41;;;14.73;95.86
23339;BME280;11841;49.368;20.962;2023-08-08T04:38:35;95665.75;;;14.73;96.36
23339;BME280;11841;49.368;20.962;2023-08-08T04:41:20;95667.06;;;14.71;97.15
23339;BME280;11841;49.368;20.962;2023-08-08T04:44:05;95669.47;;;14.72;97.52
23339;BME280;11841;49.368;20.962;2023-08-08T04:46:51;95675.63;;;14.73;98.28
23339;BME280;11841;49.368;20.962;2023-08-08T04:49:36;95671.81;;;14.69;98.45
23339;BME280;11841;49.368;20.962;2023-08-08T04:52:22;95683.06;;;14.71;98.19
23339;BME280;11841;49.368;20.962;2023-08-08T04:55:07;95678.06;;;14.74;98.08
23339;BME280;11841;49.368;20.962;2023-08-08T04:57:53;95682.66;;;14.79;98.12
23339;BME280;11841;49.368;20.962;2023-08-08T05:00:38;95684.84;;;14.82;98.03
23339;BME280;11841;49.368;20.962;2023-08-08T05:03:24;95693.56;;;14.77;98.49
23339;BME280;11841;49.368;20.962;2023-08-08T05:06:09;95703.28;;;14.67;98.56
23339;BME280;11841;49.368;20.962;2023-08-08T05:08:55;95692.50;;;14.62;98.88
23339;BME280;11841;49.368;20.962;2023-08-08T05:11:42;95691.06;;;14.71;98.51
23339;BME280;11841;49.368;20.962;2023-08-08T05:14:27;95695.19;;;14.78;98.83
23339;BME280;11841;49.368;20.962;2023-08-08T05:17:12;95695.34;;;14.72;99.43
23339;BME280;11841;49.368;20.962;2023-08-08T05:19:58;95692.19;;;14.75;99.55
23339;BME280;11841;49.368;20.962;2023-08-08T05:22:44;95701.66;;;14.82;99.00
23339;BME280;11841;49.368;20.962;2023-08-08T05:25:29;95696.00;;;14.79;98.63
23339;BME280;11841;49.368;20.962;2023-08-08T05:28:15;95705.53;;;14.75;99.44
23339;BME280;11841;49.368;20.962;2023-08-08T05:31:00;95707.31;;;14.86;99.33
23339;BME280;11841;49.368;20.962;2023-08-08T05:33:48;95709.66;;;14.99;98.85
23339;BME280;11841;49.368;20.962;2023-08-08T05:36:34;95705.84;;;15.11;98.73
23339;BME280;11841;49.368;20.962;2023-08-08T05:39:19;95715.53;;;15.17;97.75
23339;BME280;11841;49.368;20.962;2023-08-08T05:42:05;95706.69;;;15.12;98.33
23339;BME280;11841;49.368;20.962;2023-08-08T05:44:51;95711.19;;;15.11;98.12
23339;BME280;11841;49.368;20.962;2023-08-08T05:47:37;95706.69;;;15.12;97.63
23339;BME280;11841;49.368;20.962;2023-08-08T05:50:22;95706.44;;;15.13;97.15
23339;BME280;11841;49.368;20.962;2023-08-08T05:53:08;95707.78;;;15.16;96.68
23339;BME280;11841;49.368;20.962;2023-08-08T05:55:53;95703.59;;;15.20;96.53
23339;BME280;11841;49.368;20.962;2023-08-08T05:58:38;95709.41;;;15.17;95.92
23339;BME280;11841;49.368;20.962;2023-08-08T06:01:24;95710.69;;;15.14;95.09
23339;BME280;11841;49.368;20.962;2023-08-08T06:04:10;95710.06;;;15.07;94.96
23339;BME280;11841;49.368;20.962;2023-08-08T06:06:55;95708.84;;;15.15;93.98
23339;BME280;11841;49.368;20.962;2023-08-08T06:09:40;95714.84;;;15.22;95.09
23339;BME280;11841;49.368;20.962;2023-08-08T06:12:26;95719.19;;;15.28;94.87
23339;BME280;11841;49.368;20.962;2023-08-08T06:15:12;95717.72;;;15.37;94.60
23339;BME280;11841;49.368;20.962;2023-08-08T06:17:58;95702.47;;;15.37;94.94
23339;BME280;11841;49.368;20.962;2023-08-08T06:20:43;95704.72;;;15.40;95.31
23339;BME280;11841;49.368;20.962;2023-08-08T06:23:29;95709.00;;;15.41;95.67
23339;BME280;11841;49.368;20.962;2023-08-08T06:26:14;95713.97;;;15.38;95.59
23339;BME280;11841;49.368;20.962;2023-08-08T06:29:00;95724.75;;;15.43;95.29
23339;BME280;11841;49.368;20.962;2023-08-08T06:31:45;95725.34;;;15.45;92.88
23339;BME280;11841;49.368;20.962;2023-08-08T06:34:31;95724.06;;;15.47;92.23
23339;BME280;11841;49.368;20.962;2023-08-08T06:37:16;95724.91;;;15.36;92.44
23339;BME280;11841;49.368;20.962;2023-08-08T06:40:01;95725.66;;;15.32;92.19
23339;BME280;11841;49.368;20.962;2023-08-08T06:42:47;95728.91;;;15.34;92.06
23339;BME280;11841;49.368;20.962;2023-08-08T06:45:33;95719.25;;;15.33;90.34
23339;BME280;11841;49.368;20.962;2023-08-08T06:48:19;95723.41;;;15.40;89.22
23339;BME280;11841;49.368;20.962;2023-08-08T06:51:04;95721.84;;;15.28;88.66
23339;BME280;11841;49.368;20.962;2023-08-08T06:53:50;95733.59;;;15.27;89.77
23339;BME280;11841;49.368;20.962;2023-08-08T06:56:35;95727.44;;;15.26;89.38
23339;BME280;11841;49.368;20.962;2023-08-08T06:59:21;95727.84;;;15.35;90.48
23339;BME280;11841;49.368;20.962;2023-08-08T07:02:07;95719.56;;;15.36;89.45
23339;BME280;11841;49.368;20.962;2023-08-08T07:04:53;95727.69;;;15.41;88.76
23339;BME280;11841;49.368;20.962;2023-08-08T07:07:38;95717.63;;;15.48;89.37
23339;BME280;11841;49.368;20.962;2023-08-08T07:10:24;95717.94;;;15.52;89.40
23339;BME280;11841;49.368;20.962;2023-08-08T07:13:09;95725.22;;;15.56;88.85
23339;BME280;11841;49.368;20.962;2023-08-08T07:15:56;95736.22;;;15.60;87.99
23339;BME280;11841;49.368;20.962;2023-08-08T07:18:41;95727.72;;;15.63;86.75
23339;BME280;11841;49.368;20.962;2023-08-08T07:21:27;95728.34;;;15.70;86.69
23339;BME280;11841;49.368;20.962;2023-08-08T07:24:14;95730.28;;;15.75;85.70
23339;BME280;11841;49.368;20.962;2023-08-08T07:27:00;95720.88;;;15.72;85.05
23339;BME280;11841;49.368;20.962;2023-08-08T07:29:45;95725.22;;;15.78;85.13
23339;BME280;11841;49.368;20.962;2023-08-08T07:32:31;95734.38;;;15.82;84.61
23339;BME280;11841;49.368;20.962;2023-08-08T07:35:17;95730.41;;;15.85;84.02
23339;BME280;11841;49.368;20.962;2023-08-08T07:38:03;95723.19;;;15.85;85.29
23339;BME280;11841;49.368;20.962;2023-08-08T07:40:48;95723.81;;;15.92;84.46
23339;BME280;11841;49.368;20.962;2023-08-08T07:43:34;95715.84;;;15.97;84.48
23339;BME280;11841;49.368;20.962;2023-08-08T07:46:20;95720.41;;;15.97;83.40
23339;BME280;11841;49.368;20.962;2023-08-08T07:49:05;95710.88;;;16.06;83.73
23339;BME280;11841;49.368;20.962;2023-08-08T07:51:51;95712.81;;;16.10;84.62
23339;BME280;11841;49.368;20.962;2023-08-08T07:54:37;95711.03;;;16.21;84.12
23339;BME280;11841;49.368;20.962;2023-08-08T07:57:23;95713.59;;;16.32;83.25
23339;BME280;11841;49.368;20.962;2023-08-08T08:00:09;95716.78;;;16.34;82.12
23339;BME280;11841;49.368;20.962;2023-08-08T08:02:58;95713.69;;;16.42;82.04
23339;BME280;11841;49.368;20.962;2023-08-08T08:05:44;95704.31;;;16.45;81.74
23339;BME280;11841;49.368;20.962;2023-08-08T08:08:29;95708.66;;;16.46;79.80
23339;BME280;11841;49.368;20.962;2023-08-08T08:11:15;95707.38;;;16.53;79.63
23339;BME280;11841;49.368;20.962;2023-08-08T08:14:01;95724.31;;;16.59;80.28
23339;BME280;11841;49.368;20.962;2023-08-08T08:16:47;95703.72;;;16.59;77.55
23339;BME280;11841;49.368;20.962;2023-08-08T08:19:33;95700.03;;;16.70;75.44
23339;BME280;11841;49.368;20.962;2023-08-08T08:22:18;95714.28;;;16.76;75.13
23339;BME280;11841;49.368;20.962;2023-08-08T08:25:05;95728.03;;;16.84;71.37
23339;BME280;11841;49.368;20.962;2023-08-08T08:27:52;95716.56;;;16.94;71.47
23339;BME280;11841;49.368;20.962;2023-08-08T08:30:38;95701.63;;;16.98;71.00
23339;BME280;11841;49.368;20.962;2023-08-08T08:33:24;95704.84;;;17.00;69.61
23339;BME280;11841;49.368;20.962;2023-08-08T08:36:09;95707.84;;;17.04;68.01
23339;BME280;11841;49.368;20.962;2023-08-08T08:38:55;95723.38;;;17.07;66.87
23339;BME280;11841;49.368;20.962;2023-08-08T08:41:41;95711.38;;;17.14;67.76
23339;BME280;11841;49.368;20.962;2023-08-08T08:44:31;95707.13;;;17.18;66.86
23339;BME280;11841;49.368;20.962;2023-08-08T08:47:20;95709.00;;;17.23;66.60
23339;BME280;11841;49.368;20.962;2023-08-08T08:50:06;95706.09;;;17.29;67.77
23339;BME280;11841;49.368;20.962;2023-08-08T08:52:53;95697.88;;;17.36;66.64
23339;BME280;11841;49.368;20.962;2023-08-08T08:55:41;95709.97;;;17.43;66.88
23339;BME280;11841;49.368;20.962;2023-08-08T08:58:27;95704.38;;;17.50;64.52
23339;BME280;11841;49.368;20.962;2023-08-08T09:01:13;95699.59;;;17.57;63.21
23339;BME280;11841;49.368;20.962;2023-08-08T09:04:02;95705.53;;;17.59;63.50
23339;BME280;11841;49.368;20.962;2023-08-08T09:06:49;95702.31;;;17.62;61.89
23339;BME280;11841;49.368;20.962;2023-08-08T09:09:35;95710.34;;;17.62;62.21
23339;BME280;11841;49.368;20.962;2023-08-08T09:12:22;95708.22;;;17.59;62.15
23339;BME280;11841;49.368;20.962;2023-08-08T09:15:09;95706.34;;;17.59;63.51
23339;BME280;11841;49.368;20.962;2023-08-08T09:17:56;95706.59;;;17.58;64.91
23339;BME280;11841;49.368;20.962;2023-08-08T09:20:48;95703.38;;;17.56;65.29
23339;BME280;11841;49.368;20.962;2023-08-08T09:23:36;95708.97;;;17.49;65.02
23339;BME280;11841;49.368;20.962;2023-08-08T09:26:22;95707.53;;;17.42;63.55
23339;BME280;11841;49.368;20.962;2023-08-08T09:29:09;95697.38;;;17.44;64.51
23339;BME280;11841;49.368;20.962;2023-08-08T09:31:55;95698.53;;;17.53;64.76
23339;BME280;11841;49.368;20.962;2023-08-08T09:34:42;95699.66;;;17.67;65.85
23339;BME280;11841;49.368;20.962;2023-08-08T09:37:30;95703.47;;;17.76;64.12
23339;BME280;11841;49.368;20.962;2023-08-08T09:40:16;95698.13;;;17.81;61.93
23339;BME280;11841;49.368;20.962;2023-08-08T09:43:03;95700.81;;;17.86;62.41
23339;BME280;11841;49.368;20.962;2023-08-08T09:45:48;95705.13;;;17.92;63.10
23339;BME280;11841;49.368;20.962;2023-08-08T09:48:35;95697.63;;;17.89;62.89
23339;BME280;11841;49.368;20.962;2023-08-08T09:51:25;95696.28;;;17.91;62.82
23339;BME280;11841;49.368;20.962;2023-08-08T09:54:13;95695.19;;;17.87;62.55
23339;BME280;11841;49.368;20.962;2023-08-08T09:56:59;95696.84;;;17.93;64.56
23339;BME280;11841;49.368;20.962;2023-08-08T09:59:45;95702.72;;;17.95;61.80
23339;BME280;11841;49.368;20.962;2023-08-08T10:02:32;95685.88;;;18.05;61.76
23339;BME280;11841;49.368;20.962;2023-08-08T10:05:18;95692.34;;;18.19;62.47
23339;BME280;11841;49.368;20.962;2023-08-08T10:08:04;95688.63;;;18.30;60.24
23339;BME280;11841;49.368;20.962;2023-08-08T10:10:50;95675.50;;;18.39;56.30
23339;BME280;11841;49.368;20.962;2023-08-08T10:13:36;95673.94;;;18.48;56.61
23339;BME280;11841;49.368;20.962;2023-08-08T10:16:22;95676.91;;;18.61;56.77
23339;BME280;11841;49.368;20.962;2023-08-08T10:19:08;95685.75;;;18.67;56.16
23339;BME280;11841;49.368;20.962;2023-08-08T10:21:59;95674.22;;;18.71;56.76
23339;BME280;11841;49.368;20.962;2023-08-08T10:24:47;95683.34;;;18.75;56.25
23339;BME280;11841;49.368;20.962;2023-08-08T10:27:37;95685.53;;;18.78;56.57
23339;BME280;11841;49.368;20.962;2023-08-08T10:30:23;95688.22;;;18.83;55.19
23339;BME280;11841;49.368;20.962;2023-08-08T10:37:05;95693.81;;;18.77;54.92
23339;BME280;11841;49.368;20.962;2023-08-08T10:39:55;95690.88;;;18.73;53.64
23339;BME280;11841;49.368;20.962;2023-08-08T10:42:44;95679.34;;;18.73;55.16
23339;BME280;11841;49.368;20.962;2023-08-08T10:45:31;95682.84;;;18.78;54.67
23339;BME280;11841;49.368;20.962;2023-08-08T10:48:16;95682.28;;;18.76;54.03
23339;BME280;11841;49.368;20.962;2023-08-08T10:51:05;95684.72;;;18.78;55.14
23339;BME280;11841;49.368;20.962;2023-08-08T10:53:51;95688.72;;;18.80;54.57
23339;BME280;11841;49.368;20.962;2023-08-08T10:56:38;95677.47;;;18.83;54.88
23339;BME280;11841;49.368;20.962;2023-08-08T10:59:41;95686.03;;;18.90;53.60
23339;BME280;11841;49.368;20.962;2023-08-08T11:02:27;95673.97;;;18.88;53.08
23339;BME280;11841;49.368;20.962;2023-08-08T11:05:14;95672.34;;;18.97;53.84
23339;BME280;11841;49.368;20.962;2023-08-08T11:08:00;95682.28;;;19.01;52.24
23339;BME280;11841;49.368;20.962;2023-08-08T11:10:51;95671.81;;;19.00;50.73
23339;BME280;11841;49.368;20.962;2023-08-08T11:13:37;95666.69;;;19.03;52.22
23339;BME280;11841;49.368;20.962;2023-08-08T11:16:23;95670.72;;;19.11;54.43
23339;BME280;11841;49.368;20.962;2023-08-08T11:19:10;95676.88;;;19.16;54.13
23339;BME280;11841;49.368;20.962;2023-08-08T11:21:56;95666.13;;;19.16;52.63
23339;BME280;11841;49.368;20.962;2023-08-08T11:24:41;95669.38;;;19.18;51.74
23339;BME280;11841;49.368;20.962;2023-08-08T11:27:26;95662.63;;;19.26;53.38
23339;BME280;11841;49.368;20.962;2023-08-08T11:30:15;95660.75;;;19.32;51.98
23339;BME280;11841;49.368;20.962;2023-08-08T11:33:01;95660.75;;;19.26;51.61
23339;BME280;11841;49.368;20.962;2023-08-08T11:35:50;95667.78;;;19.33;53.60
23339;BME280;11841;49.368;20.962;2023-08-08T11:38:36;95666.38;;;19.45;53.09
23339;BME280;11841;49.368;20.962;2023-08-08T11:41:23;95662.91;;;19.50;51.95
23339;BME280;11841;49.368;20.962;2023-08-08T11:44:09;95661.25;;;19.54;51.54
23339;BME280;11841;49.368;20.962;2023-08-08T11:46:54;95661.25;;;19.54;51.61
23339;BME280;11841;49.368;20.962;2023-08-08T11:49:41;95656.94;;;19.58;52.16
23339;BME280;11841;49.368;20.962;2023-08-08T11:52:28;95658.81;;;19.57;50.43
23339;BME280;11841;49.368;20.962;2023-08-08T11:55:13;95662.88;;;19.55;50.50
23339;BME280;11841;49.368;20.962;2023-08-08T11:57:59;95666.06;;;19.57;50.60
23339;BME280;11841;49.368;20.962;2023-08-08T12:00:45;95656.38;;;19.61;50.67
23339;BME280;11841;49.368;20.962;2023-08-08T12:03:31;95674.13;;;19.62;50.96
23339;BME280;11841;49.368;20.962;2023-08-08T12:06:17;95667.69;;;19.58;49.96
23339;BME280;11841;49.368;20.962;2023-08-08T12:09:03;95671.41;;;19.67;51.17
23339;BME280;11841;49.368;20.962;2023-08-08T12:11:50;95668.19;;;19.75;50.88
23339;BME280;11841;49.368;20.962;2023-08-08T12:14:39;95681.66;;;19.70;50.51
23339;BME280;11841;49.368;20.962;2023-08-08T12:17:42;95672.00;;;19.54;50.40
23339;BME280;11841;49.368;20.962;2023-08-08T12:20:29;95664.22;;;19.52;51.72
23339;BME280;11841;49.368;20.962;2023-08-08T12:23:15;95675.50;;;19.59;53.43
23339;BME280;11841;49.368;20.962;2023-08-08T12:26:03;95667.69;;;19.58;53.30
23339;BME280;11841;49.368;20.962;2023-08-08T12:28:50;95660.44;;;19.63;54.52
23339;BME280;11841;49.368;20.962;2023-08-08T12:31:38;95660.44;;;19.63;53.98
23339;BME280;11841;49.368;20.962;2023-08-08T12:34:24;95648.34;;;19.56;55.68
23339;BME280;11841;49.368;20.962;2023-08-08T12:37:09;95652.34;;;19.58;56.02
23339;BME280;11841;49.368;20.962;2023-08-08T12:39:55;95644.28;;;19.63;55.20
23339;BME280;11841;49.368;20.962;2023-08-08T12:42:40;95648.03;;;19.62;54.15
23339;BME280;11841;49.368;20.962;2023-08-08T12:45:26;95641.84;;;19.67;54.13
23339;BME280;11841;49.368;20.962;2023-08-08T12:48:12;95635.88;;;19.80;55.31
23339;BME280;11841;49.368;20.962;2023-08-08T12:50:58;95638.25;;;19.91;54.40
23339;BME280;11841;49.368;20.962;2023-08-08T12:53:43;95642.44;;;20.07;54.68
23339;BME280;11841;49.368;20.962;2023-08-08T12:56:29;95641.88;;;20.25;52.56
23339;BME280;11841;49.368;20.962;2023-08-08T12:59:14;95651.25;;;20.28;51.18
23339;BME280;11841;49.368;20.962;2023-08-08T13:02:00;95654.53;;;20.15;48.95
23339;BME280;11841;49.368;20.962;2023-08-08T13:04:45;95654.63;;;20.00;50.26
23339;BME280;11841;49.368;20.962;2023-08-08T13:07:31;95658.16;;;19.95;50.31
23339;BME280;11841;49.368;20.962;2023-08-08T13:10:17;95672.94;;;19.93;49.96
23339;BME280;11841;49.368;20.962;2023-08-08T13:13:04;95678.34;;;19.88;50.28
23339;BME280;11841;49.368;20.962;2023-08-08T13:15:50;95676.78;;;19.82;51.40
23339;BME280;11841;49.368;20.962;2023-08-08T13:18:35;95686.41;;;19.88;52.60
23339;BME280;11841;49.368;20.962;2023-08-08T13:21:20;95678.38;;;19.83;53.39
23339;BME280;11841;49.368;20.962;2023-08-08T13:24:06;95680.00;;;19.79;52.62
23339;BME280;11841;49.368;20.962;2023-08-08T13:26:53;95683.78;;;19.73;52.11
23339;BME280;11841;49.368;20.962;2023-08-08T13:29:38;95676.31;;;19.60;51.76
23339;BME280;11841;49.368;20.962;2023-08-08T13:32:24;95684.38;;;19.60;52.17
23339;BME280;11841;49.368;20.962;2023-08-08T13:35:09;95693.53;;;19.54;52.49
23339;BME280;11841;49.368;20.962;2023-08-08T13:37:55;95704.28;;;19.54;52.70
23339;BME280;11841;49.368;20.962;2023-08-08T13:40:44;95699.44;;;19.51;52.66
23339;BME280;11841;49.368;20.962;2023-08-08T13:43:29;95704.31;;;19.39;52.81
23339;BME280;11841;49.368;20.962;2023-08-08T13:46:15;95711.28;;;19.30;53.36
23339;BME280;11841;49.368;20.962;2023-08-08T13:49:00;95700.25;;;19.21;53.96
23339;BME280;11841;49.368;20.962;2023-08-08T13:51:46;95695.44;;;19.18;54.25
23339;BME280;11841;49.368;20.962;2023-08-08T13:54:35;95693.56;;;19.13;54.31
23339;BME280;11841;49.368;20.962;2023-08-08T13:57:20;95691.66;;;19.09;54.44
23339;BME280;11841;49.368;20.962;2023-08-08T14:00:06;95693.03;;;19.06;54.65
23339;BME280;11841;49.368;20.962;2023-08-08T14:02:55;95692.75;;;19.03;55.32
23339;BME280;11841;49.368;20.962;2023-08-08T14:05:41;95691.66;;;18.94;55.35
23339;BME280;11841;49.368;20.962;2023-08-08T14:08:26;95689.25;;;18.87;55.85
23339;BME280;11841;49.368;20.962;2023-08-08T14:11:12;95689.53;;;18.91;56.58
23339;BME280;11841;49.368;20.962;2023-08-08T14:13:57;95683.88;;;18.97;56.36
23339;BME280;11841;49.368;20.962;2023-08-08T14:16:43;95682.28;;;19.11;55.75
23339;BME280;11841;49.368;20.962;2023-08-08T14:19:28;95681.19;;;19.22;55.81
23339;BME280;11841;49.368;20.962;2023-08-08T14:22:13;95694.09;;;19.41;54.06
23339;BME280;11841;49.368;20.962;2023-08-08T14:24:59;95683.31;;;19.51;54.54
23339;BME280;11841;49.368;20.962;2023-08-08T14:27:44;95689.78;;;19.50;53.19
23339;BME280;11841;49.368;20.962;2023-08-08T14:30:30;95686.00;;;19.46;53.97
23339;BME280;11841;49.368;20.962;2023-08-08T14:33:16;95695.13;;;19.45;54.55
23339;BME280;11841;49.368;20.962;2023-08-08T14:36:02;95694.59;;;19.53;54.32
23339;BME280;11841;49.368;20.962;2023-08-08T14:38:47;95697.81;;;19.65;55.51
23339;BME280;11841;49.368;20.962;2023-08-08T14:41:33;95697.22;;;19.78;55.83